Time;durP1;ratioP1;P1;durP2;ratioP2;P2;SDS_P1;SDS_P2;PMS_P1;PMS_P2;Temp;Humidity;BMP_temperature;BMP_pressure;BME280_temperature;BME280_humidity;BME280_pressure;Samples;Min_cycle;Max_cycle;Signal;HPM_P1;HPM_P2
2022/10/12 00:01:54;;;;;;;9.35;4.90;;;8.80;99.90;;;;;;4972343;28;98564;-72
2022/10/12 00:04:21;;;;;;;7.75;4.50;;;8.80;99.90;;;;;;4970508;28;99133;-72
2022/10/12 00:06:48;;;;;;;6.95;4.95;;;8.80;99.90;;;;;;4971798;28;99402;-72
2022/10/12 00:09:15;;;;;;;6.95;4.80;;;8.80;99.90;;;;;;4970316;28;113678;-72
2022/10/12 00:11:42;;;;;;;8.95;5.53;;;8.80;99.90;;;;;;4971084;28;98545;-72
2022/10/12 00:14:09;;;;;;;8.68;4.68;;;8.80;99.90;;;;;;4972336;28;99001;-72
2022/10/12 00:16:36;;;;;;;6.95;4.57;;;8.80;99.90;;;;;;4953538;28;102584;-72
2022/10/12 00:19:03;;;;;;;21.50;13.07;;;8.70;99.90;;;;;;4971707;28;99815;-72
2022/10/12 00:21:30;;;;;;;10.75;9.73;;;8.70;99.90;;;;;;4971387;28;98532;-72
2022/10/12 00:23:59;;;;;;;9.07;7.95;;;8.70;99.90;;;;;;4954394;28;99387;-72
2022/10/12 00:26:27;;;;;;;8.25;6.53;;;8.70;99.90;;;;;;4969886;28;101874;-72
2022/10/12 00:28:57;;;;;;;6.03;5.32;;;8.70;99.90;;;;;;4972021;28;99028;-72
2022/10/12 00:31:25;;;;;;;8.15;5.68;;;8.70;99.90;;;;;;4974569;28;98526;-72
2022/10/12 00:33:53;;;;;;;7.75;4.80;;;8.70;99.90;;;;;;4974054;28;97824;-72
2022/10/12 00:36:22;;;;;;;7.00;4.57;;;8.70;99.90;;;;;;4973318;28;99113;-72
2022/10/12 00:38:50;;;;;;;8.02;5.03;;;8.70;99.90;;;;;;4974717;28;99270;-72
2022/10/12 00:41:19;;;;;;;5.63;4.18;;;8.60;99.90;;;;;;4973317;28;99315;-72
2022/10/12 00:43:48;;;;;;;7.90;3.90;;;8.60;99.90;;;;;;4974401;28;98860;-72
2022/10/12 00:46:39;;;;;;;4.18;3.65;;;8.70;99.90;;;;;;4957127;28;100353;-72
2022/10/12 00:49:14;;;;;;;10.18;3.85;;;8.70;99.90;;;;;;4973191;28;101868;-72
2022/10/12 00:51:43;;;;;;;6.70;3.97;;;8.70;99.90;;;;;;4974966;28;99093;-72
2022/10/12 00:54:14;;;;;;;6.38;3.75;;;8.60;99.90;;;;;;4973671;28;98546;-72
2022/10/12 00:56:45;;;;;;;7.45;3.83;;;8.70;99.90;;;;;;4972969;28;99487;-72
2022/10/12 00:59:28;;;;;;;5.38;4.20;;;8.60;99.90;;;;;;4973656;28;98827;-72
2022/10/12 01:01:55;;;;;;;4.72;3.42;;;8.70;99.90;;;;;;4974967;28;98508;-72
2022/10/12 01:04:23;;;;;;;7.40;3.20;;;8.60;99.90;;;;;;4974374;28;98499;-72
2022/10/12 01:06:51;;;;;;;5.53;4.53;;;8.70;99.90;;;;;;4973798;28;100298;-72
2022/10/12 01:09:20;;;;;;;8.05;4.53;;;8.60;99.90;;;;;;4973060;28;99777;-73
2022/10/12 01:11:47;;;;;;;6.07;3.53;;;8.70;99.90;;;;;;4957244;28;98947;-72
2022/10/12 01:14:15;;;;;;;5.00;3.20;;;8.70;99.90;;;;;;4973084;28;98610;-72
2022/10/12 01:16:52;;;;;;;4.25;3.47;;;8.70;99.90;;;;;;4973214;28;117684;-72
2022/10/12 01:19:40;;;;;;;5.20;3.65;;;8.70;99.90;;;;;;4972663;28;102124;-72
2022/10/12 01:22:11;;;;;;;6.47;3.80;;;8.70;99.90;;;;;;4956834;28;98546;-72
2022/10/12 01:24:43;;;;;;;8.10;4.65;;;8.60;99.90;;;;;;4974592;28;97782;-72
2022/10/12 01:27:13;;;;;;;6.32;4.88;;;8.60;99.90;;;;;;4956335;28;101917;-73
2022/10/12 01:30:04;;;;;;;6.10;4.68;;;8.60;99.90;;;;;;4973770;28;98926;-72
2022/10/12 01:32:50;;;;;;;7.25;4.40;;;8.60;99.90;;;;;;4971863;28;99338;-72
2022/10/12 01:35:20;;;;;;;6.18;4.63;;;8.60;99.90;;;;;;4974321;28;98565;-72
2022/10/12 01:38:11;;;;;;;8.05;5.57;;;8.50;99.90;;;;;;4972085;28;101861;-72
2022/10/12 01:40:47;;;;;;;4.43;3.55;;;8.50;99.90;;;;;;4972425;28;99192;-73
2022/10/12 01:43:16;;;;;;;4.57;3.72;;;8.50;99.90;;;;;;4974145;28;98497;-72
2022/10/12 01:45:44;;;;;;;6.50;4.05;;;8.40;99.90;;;;;;4973803;28;98562;-72
2022/10/12 01:48:11;;;;;;;9.02;4.70;;;8.40;99.90;;;;;;4972244;28;101804;-72
2022/10/12 01:50:49;;;;;;;7.03;3.95;;;8.40;99.90;;;;;;4956119;28;101532;-73
2022/10/12 01:53:26;;;;;;;6.75;4.40;;;8.50;99.90;;;;;;4972650;28;98593;-73
2022/10/12 01:56:15;;;;;;;13.20;3.83;;;8.40;99.90;;;;;;4974242;28;98470;-72
2022/10/12 01:59:14;;;;;;;10.77;4.65;;;8.40;99.90;;;;;;4973045;28;100071;-72
2022/10/12 02:02:02;;;;;;;9.95;4.65;;;8.30;99.90;;;;;;4973499;28;99787;-72
2022/10/12 02:04:38;;;;;;;6.72;4.38;;;8.20;99.90;;;;;;4973765;28;98530;-72
2022/10/12 02:07:15;;;;;;;10.30;5.05;;;8.20;99.90;;;;;;4972480;28;98614;-72
2022/10/12 02:09:43;;;;;;;5.75;4.20;;;8.20;99.90;;;;;;4972149;28;99318;-72
2022/10/12 02:12:21;;;;;;;6.68;4.63;;;8.20;99.90;;;;;;4955682;28;101542;-72
2022/10/12 02:14:52;;;;;;;7.82;5.00;;;8.20;99.90;;;;;;4972392;28;98502;-72
2022/10/12 02:17:21;;;;;;;9.10;5.35;;;8.10;99.90;;;;;;4974172;28;97848;-72
2022/10/12 02:20:02;;;;;;;7.70;5.18;;;8.10;99.90;;;;;;4955455;28;102590;-73
2022/10/12 02:22:34;;;;;;;8.88;5.20;;;8.10;99.90;;;;;;4973516;28;99029;-72
2022/10/12 02:25:09;;;;;;;5.82;4.57;;;8.10;99.90;;;;;;4973324;28;99254;-73
2022/10/12 02:27:41;;;;;;;5.43;4.50;;;8.10;99.90;;;;;;4973392;28;98503;-72
2022/10/12 02:30:09;;;;;;;7.75;4.65;;;8.00;99.90;;;;;;4973243;28;99160;-72
2022/10/12 02:32:54;;;;;;;6.70;5.95;;;8.00;99.90;;;;;;4972553;28;98993;-72
2022/10/12 02:35:37;;;;;;;8.50;6.70;;;8.00;99.90;;;;;;4973625;28;98635;-72
2022/10/12 02:38:10;;;;;;;13.68;7.20;;;8.00;99.90;;;;;;4973755;28;98855;-72
2022/10/12 02:40:39;;;;;;;10.10;7.70;;;8.00;99.90;;;;;;4972909;28;99378;-72
2022/10/12 02:43:16;;;;;;;14.40;8.27;;;8.00;99.90;;;;;;4973157;28;98934;-73
2022/10/12 02:45:45;;;;;;;13.95;7.97;;;8.00;99.90;;;;;;4973161;28;98497;-72
2022/10/12 02:48:17;;;;;;;12.40;9.57;;;8.00;99.90;;;;;;4973362;28;98846;-72
2022/10/12 02:50:45;;;;;;;14.38;9.98;;;8.00;99.90;;;;;;4970265;28;102598;-72
2022/10/12 02:53:12;;;;;;;13.18;9.98;;;8.00;99.90;;;;;;4971872;28;99904;-72
2022/10/12 02:55:50;;;;;;;14.60;10.23;;;8.10;99.90;;;;;;4987375;28;98694;-72
2022/10/12 02:58:18;;;;;;;16.45;9.40;;;8.10;99.90;;;;;;4971234;28;98619;-72
2022/10/12 03:00:45;;;;;;;16.27;10.05;;;8.20;99.90;;;;;;4972148;28;110030;-73
2022/10/12 03:03:12;;;;;;;14.18;10.15;;;8.20;99.90;;;;;;4971007;28;99020;-73
2022/10/12 03:05:39;;;;;;;14.57;10.05;;;8.30;99.90;;;;;;4970522;28;98514;-73
2022/10/12 03:08:06;;;;;;;12.80;9.07;;;8.30;99.90;;;;;;4955200;28;97827;-72
2022/10/12 03:10:33;;;;;;;14.05;9.32;;;8.30;99.90;;;;;;4972597;28;99376;-72
2022/10/12 03:13:00;;;;;;;12.68;9.63;;;8.30;99.90;;;;;;4972432;28;99111;-72
2022/10/12 03:15:27;;;;;;;18.73;10.35;;;8.40;99.90;;;;;;4972596;28;99194;-72
2022/10/12 03:17:54;;;;;;;14.52;9.13;;;8.40;99.90;;;;;;4954524;28;98636;-72
2022/10/12 03:20:21;;;;;;;20.98;9.95;;;8.40;99.90;;;;;;4954590;28;112344;-72
2022/10/12 03:22:48;;;;;;;17.40;9.85;;;8.50;99.90;;;;;;4954448;28;101826;-72
2022/10/12 03:25:15;;;;;;;13.80;9.68;;;8.50;99.90;;;;;;4972763;28;98503;-72
2022/10/12 03:27:42;;;;;;;17.98;9.73;;;8.50;99.90;;;;;;4971395;28;98693;-72
2022/10/12 03:30:10;;;;;;;13.30;8.75;;;8.50;99.90;;;;;;4971150;28;99342;-72
2022/10/12 03:32:38;;;;;;;13.73;9.25;;;8.50;99.90;;;;;;4970888;28;104234;-73
2022/10/12 03:35:06;;;;;;;11.48;8.80;;;8.50;99.90;;;;;;4971038;28;98709;-73
2022/10/12 03:37:33;;;;;;;14.73;8.95;;;8.50;99.90;;;;;;4971248;28;98674;-73
2022/10/12 03:40:01;;;;;;;15.00;9.02;;;8.50;99.90;;;;;;4971555;28;100088;-72
2022/10/12 03:42:28;;;;;;;15.13;9.07;;;8.50;99.90;;;;;;4972044;28;99724;-72
2022/10/12 03:44:54;;;;;;;15.63;9.45;;;8.50;99.90;;;;;;4971099;28;98634;-72
2022/10/12 03:47:21;;;;;;;13.50;9.43;;;8.50;99.90;;;;;;4972448;28;99418;-73
2022/10/12 03:49:48;;;;;;;16.50;9.63;;;8.50;99.90;;;;;;4971809;28;99418;-72
2022/10/12 03:52:15;;;;;;;15.70;9.73;;;8.50;99.90;;;;;;4954716;28;99007;-72
2022/10/12 03:54:42;;;;;;;13.85;8.88;;;8.50;99.90;;;;;;4972298;28;99098;-72
2022/10/12 03:57:09;;;;;;;12.05;9.18;;;8.50;99.90;;;;;;4971369;28;97887;-73
2022/10/12 03:59:36;;;;;;;18.67;10.35;;;8.50;99.90;;;;;;4972024;28;99278;-72
2022/10/12 04:02:03;;;;;;;13.75;8.60;;;8.50;99.90;;;;;;4971119;28;98843;-72
2022/10/12 04:04:30;;;;;;;13.50;8.95;;;8.50;99.90;;;;;;4974192;28;99165;-72
2022/10/12 04:06:57;;;;;;;16.38;9.55;;;8.50;99.90;;;;;;4974093;28;98620;-73
2022/10/12 04:09:24;;;;;;;25.38;8.95;;;8.50;99.90;;;;;;4975192;28;99182;-72
2022/10/12 04:11:50;;;;;;;16.05;9.98;;;8.50;99.90;;;;;;4973720;28;100448;-72
2022/10/12 04:14:17;;;;;;;14.70;8.73;;;8.50;99.90;;;;;;4975127;28;98457;-72
2022/10/12 04:16:44;;;;;;;13.75;9.30;;;8.50;99.90;;;;;;4974986;28;98525;-72
2022/10/12 04:19:12;;;;;;;12.52;8.60;;;8.50;99.90;;;;;;4973581;28;101921;-73
2022/10/12 04:21:39;;;;;;;14.68;8.77;;;8.50;99.90;;;;;;4975441;28;99151;-72
2022/10/12 04:24:06;;;;;;;14.85;8.38;;;8.50;99.90;;;;;;4973849;28;99086;-73
2022/10/12 04:26:33;;;;;;;16.58;8.95;;;8.50;99.90;;;;;;4974226;28;98598;-73
2022/10/12 04:29:00;;;;;;;16.48;9.10;;;8.50;99.90;;;;;;4972832;28;102743;-72
2022/10/12 04:31:27;;;;;;;17.58;9.93;;;8.50;99.90;;;;;;4974111;28;99672;-72
2022/10/12 04:33:55;;;;;;;13.07;8.68;;;8.50;99.90;;;;;;4973858;28;99146;-73
2022/10/12 04:36:26;;;;;;;14.32;9.00;;;8.50;99.90;;;;;;4973923;28;98641;-72
2022/10/12 04:38:53;;;;;;;11.75;8.40;;;8.50;99.90;;;;;;4974634;28;99366;-72
2022/10/12 04:41:25;;;;;;;13.07;8.40;;;8.50;99.90;;;;;;4974988;28;99088;-72
2022/10/12 04:43:52;;;;;;;16.30;8.82;;;8.50;99.90;;;;;;4974969;28;99293;-73
2022/10/12 04:46:20;;;;;;;13.55;8.15;;;8.50;99.90;;;;;;4957820;28;97946;-72
2022/10/12 04:48:46;;;;;;;12.43;8.85;;;8.50;99.90;;;;;;4973493;28;99440;-72
2022/10/12 04:51:13;;;;;;;14.32;8.60;;;8.60;99.90;;;;;;4974618;28;100579;-72
2022/10/12 04:53:40;;;;;;;12.77;8.35;;;8.60;99.90;;;;;;4974888;28;99749;-72
2022/10/12 04:56:08;;;;;;;11.57;7.72;;;8.60;99.90;;;;;;4973469;28;98646;-72
2022/10/12 04:58:34;;;;;;;20.27;8.65;;;8.60;99.90;;;;;;4973001;28;102057;-72
2022/10/12 05:01:01;;;;;;;11.25;8.13;;;8.60;99.90;;;;;;4974240;28;101255;-72
2022/10/12 05:03:28;;;;;;;13.23;8.82;;;8.60;99.90;;;;;;4975039;28;99130;-72
2022/10/12 05:05:55;;;;;;;16.40;8.68;;;8.60;99.90;;;;;;4974523;28;98639;-72
2022/10/12 05:08:22;;;;;;;15.95;8.68;;;8.60;99.90;;;;;;4973270;28;99249;-72
2022/10/12 05:10:49;;;;;;;18.27;8.70;;;8.70;99.90;;;;;;4974560;28;99224;-72
2022/10/12 05:13:16;;;;;;;9.90;7.25;;;8.60;99.90;;;;;;4975010;28;99164;-72
2022/10/12 05:15:43;;;;;;;14.98;8.73;;;8.60;99.90;;;;;;4974281;28;98543;-72
2022/10/12 05:18:10;;;;;;;11.07;8.45;;;8.60;99.90;;;;;;4973525;28;99988;-72
2022/10/12 05:20:37;;;;;;;13.35;8.80;;;8.60;99.90;;;;;;4972996;28;101605;-73
2022/10/12 05:23:04;;;;;;;11.88;8.35;;;8.60;99.90;;;;;;4972995;28;99270;-72
2022/10/12 05:25:34;;;;;;;13.48;8.00;;;8.60;99.90;;;;;;4972992;28;98640;-72
2022/10/12 05:28:01;;;;;;;14.40;8.32;;;8.50;99.90;;;;;;4956502;28;100432;-72
2022/10/12 05:30:28;;;;;;;12.68;8.40;;;8.50;99.90;;;;;;4973861;28;98964;-72
2022/10/12 05:32:55;;;;;;;15.25;9.02;;;8.50;99.90;;;;;;4974165;28;98544;-72
2022/10/12 05:35:22;;;;;;;13.88;8.75;;;8.50;99.90;;;;;;4957041;28;97867;-72
2022/10/12 05:37:49;;;;;;;14.77;8.90;;;8.50;99.90;;;;;;4974158;28;99240;-72
2022/10/12 05:40:16;;;;;;;16.65;9.38;;;8.40;99.90;;;;;;4973516;28;99210;-72
2022/10/12 05:42:44;;;;;;;20.25;9.35;;;8.40;99.90;;;;;;4973895;28;99569;-72
2022/10/12 05:45:11;;;;;;;20.35;9.13;;;8.40;99.90;;;;;;4956358;28;100291;-72
2022/10/12 05:47:39;;;;;;;13.25;8.32;;;8.40;99.90;;;;;;4973499;28;99380;-72
2022/10/12 05:50:07;;;;;;;13.20;8.77;;;8.40;99.90;;;;;;4972104;28;101667;-72
2022/10/12 05:52:34;;;;;;;17.70;9.60;;;8.30;99.90;;;;;;4974134;28;99047;-72
2022/10/12 05:55:02;;;;;;;13.68;8.07;;;8.30;99.90;;;;;;4972654;28;98629;-72
2022/10/12 05:57:29;;;;;;;15.93;8.38;;;8.30;99.90;;;;;;4973632;28;99173;-72
2022/10/12 05:59:56;;;;;;;13.63;8.20;;;8.30;99.90;;;;;;4974025;28;98958;-72
2022/10/12 06:02:23;;;;;;;15.10;8.52;;;8.20;99.90;;;;;;4972686;28;98540;-72
2022/10/12 06:04:50;;;;;;;13.05;8.68;;;8.20;99.90;;;;;;4973671;28;98604;-72
2022/10/12 06:07:17;;;;;;;14.10;7.88;;;8.20;99.90;;;;;;4972421;28;101398;-72
2022/10/12 06:09:43;;;;;;;12.45;8.32;;;8.20;99.90;;;;;;4973504;28;99875;-72
2022/10/12 06:12:11;;;;;;;17.60;8.13;;;8.20;99.90;;;;;;4972291;28;98624;-73
2022/10/12 06:14:37;;;;;;;10.82;7.43;;;8.20;99.90;;;;;;4956189;28;98555;-72
2022/10/12 06:17:05;;;;;;;15.00;8.30;;;8.20;99.90;;;;;;4973058;28;99387;-72
2022/10/12 06:19:32;;;;;;;13.70;7.97;;;8.20;99.90;;;;;;4971917;28;101678;-72
2022/10/12 06:21:59;;;;;;;13.35;7.53;;;8.20;99.90;;;;;;4972072;28;98514;-72
2022/10/12 06:24:26;;;;;;;13.98;8.25;;;8.20;99.90;;;;;;4972685;28;97860;-72
2022/10/12 06:26:53;;;;;;;12.82;8.00;;;8.20;99.90;;;;;;4954613;28;99348;-72
2022/10/12 06:29:22;;;;;;;13.30;8.00;;;8.20;99.90;;;;;;4972894;28;99016;-72
2022/10/12 06:31:50;;;;;;;13.45;7.93;;;8.20;99.90;;;;;;4972320;28;99287;-72
2022/10/12 06:34:17;;;;;;;13.02;7.63;;;8.20;99.90;;;;;;4939486;28;98678;-72
2022/10/12 06:36:44;;;;;;;10.40;7.10;;;8.20;99.90;;;;;;4972898;28;100152;-73
2022/10/12 06:39:11;;;;;;;13.45;7.40;;;8.20;99.90;;;;;;4972660;28;99057;-72
2022/10/12 06:41:39;;;;;;;16.35;7.25;;;8.20;99.90;;;;;;4972062;28;99054;-72
2022/10/12 06:44:08;;;;;;;11.60;7.10;;;8.20;99.90;;;;;;4955924;28;98522;-72
2022/10/12 06:46:34;;;;;;;11.90;8.48;;;8.30;99.90;;;;;;4972698;28;99676;-72
2022/10/12 06:49:02;;;;;;;12.30;7.45;;;8.30;99.90;;;;;;4973027;28;99250;-72
2022/10/12 06:51:29;;;;;;;15.93;7.43;;;8.30;99.90;;;;;;4971872;28;98470;-72
2022/10/12 06:53:56;;;;;;;14.70;8.32;;;8.30;99.90;;;;;;4973215;28;98437;-72
2022/10/12 06:56:23;;;;;;;14.65;7.38;;;8.40;99.90;;;;;;4972350;28;99949;-72
2022/10/12 06:58:54;;;;;;;12.00;7.55;;;8.40;99.90;;;;;;4972728;28;99852;-72
2022/10/12 07:01:22;;;;;;;14.00;7.55;;;8.60;99.90;;;;;;4971721;28;98514;-72
2022/10/12 07:03:49;;;;;;;13.50;7.25;;;8.70;99.90;;;;;;4954878;28;102148;-72
2022/10/12 07:06:16;;;;;;;10.93;6.75;;;8.90;99.90;;;;;;4971255;28;99406;-72
2022/10/12 07:08:43;;;;;;;9.95;6.43;;;9.00;99.90;;;;;;4972724;28;99046;-72
2022/10/12 07:11:11;;;;;;;12.27;7.05;;;9.10;99.90;;;;;;4971023;28;98533;-72
2022/10/12 07:13:38;;;;;;;12.27;6.50;;;9.20;99.90;;;;;;4973422;28;98164;-72
2022/10/12 07:16:06;;;;;;;11.05;6.75;;;9.30;99.90;;;;;;4972157;28;99461;-72
2022/10/12 07:18:33;;;;;;;11.10;7.68;;;9.40;99.90;;;;;;4955223;28;99236;-72
2022/10/12 07:21:01;;;;;;;10.43;6.75;;;9.50;99.90;;;;;;4972474;28;99164;-73
2022/10/12 07:23:33;;;;;;;11.18;6.65;;;9.60;99.90;;;;;;4972749;28;98924;-72
2022/10/12 07:26:00;;;;;;;8.98;6.00;;;9.70;99.90;;;;;;4954586;28;102111;-72
2022/10/12 07:28:27;;;;;;;11.23;6.28;;;9.70;99.90;;;;;;4970506;28;114704;-72
2022/10/12 07:31:03;;;;;;;11.98;6.70;;;9.70;99.90;;;;;;4972570;28;98643;-72
2022/10/12 07:33:34;;;;;;;13.40;9.13;;;9.80;99.90;;;;;;4972717;28;99236;-72
2022/10/12 07:36:03;;;;;;;16.13;8.82;;;9.90;99.90;;;;;;4971080;28;100138;-72
2022/10/12 07:38:48;;;;;;;10.25;7.75;;;10.10;99.90;;;;;;4975741;28;99007;-73
2022/10/12 07:41:15;;;;;;;13.05;6.72;;;10.30;99.90;;;;;;4974652;28;98636;-72
2022/10/12 07:43:42;;;;;;;16.48;6.60;;;10.60;99.90;;;;;;4976112;28;99155;-72
2022/10/12 07:46:10;;;;;;;9.75;6.25;;;10.90;99.90;;;;;;4973913;28;100236;-72
2022/10/12 07:48:39;;;;;;;10.75;7.05;;;11.20;99.90;;;;;;4975597;28;99552;-72
2022/10/12 07:51:08;;;;;;;10.70;6.75;;;11.60;99.90;;;;;;4974755;28;98590;-72
2022/10/12 07:53:35;;;;;;;9.20;6.80;;;12.00;99.90;;;;;;4975529;28;98567;-72
2022/10/12 07:56:05;;;;;;;8.00;7.22;;;12.60;99.90;;;;;;4975458;28;99368;-72
2022/10/12 07:58:32;;;;;;;10.93;5.50;;;13.00;99.90;;;;;;4973909;28;101604;-73
2022/10/12 08:01:07;;;;;;;9.50;6.43;;;13.40;99.90;;;;;;4975827;28;98520;-72
2022/10/12 08:03:35;;;;;;;13.32;6.00;;;13.70;99.90;;;;;;4974490;28;97842;-72
2022/10/12 08:06:16;;;;;;;9.07;5.07;;;13.70;99.90;;;;;;4973766;28;101923;-72
2022/10/12 08:08:43;;;;;;;9.90;6.47;;;13.90;99.90;;;;;;4957777;28;101475;-73
2022/10/12 08:11:12;;;;;;;10.63;5.55;;;13.90;99.90;;;;;;4975312;28;99251;-72
2022/10/12 08:13:40;;;;;;;11.30;6.13;;;13.90;99.90;;;;;;4975200;28;99399;-73
2022/10/12 08:16:16;;;;;;;9.43;6.00;;;13.80;99.90;;;;;;4973635;28;102149;-73
2022/10/12 08:18:43;;;;;;;12.88;6.50;;;13.80;99.90;;;;;;4975314;28;99123;-73
2022/10/12 08:21:13;;;;;;;9.48;6.10;;;13.60;99.90;;;;;;4958180;28;98540;-72
2022/10/12 08:23:40;;;;;;;17.38;6.97;;;13.60;99.90;;;;;;4973998;28;99109;-73
2022/10/12 08:26:07;;;;;;;12.05;6.60;;;13.50;99.90;;;;;;4975089;28;99312;-72
2022/10/12 08:28:35;;;;;;;12.65;6.18;;;13.40;99.90;;;;;;4974019;28;99103;-73
2022/10/12 08:31:07;;;;;;;10.50;5.65;;;13.30;99.90;;;;;;4975051;28;99071;-73
2022/10/12 08:33:34;;;;;;;107.15;17.35;;;13.30;99.90;;;;;;4975273;28;98417;-72
2022/10/12 08:36:04;;;;;;;11.15;5.35;;;13.30;99.90;;;;;;4973820;28;100105;-72
2022/10/12 08:38:31;;;;;;;9.50;5.63;;;13.20;99.90;;;;;;4973206;28;99675;-72
2022/10/12 08:41:32;;;;;;;12.10;5.63;;;13.10;99.90;;;;;;4973605;28;98602;-72
2022/10/12 08:44:31;;;;;;;10.00;5.45;;;13.00;99.90;;;;;;4973646;28;98608;-73
2022/10/12 08:47:02;;;;;;;12.48;5.97;;;12.90;99.90;;;;;;4974720;28;99263;-72
2022/10/12 08:49:31;;;;;;;45.63;37.65;;;12.90;99.90;;;;;;4973979;28;98980;-72
2022/10/12 08:52:05;;;;;;;13.32;5.72;;;13.00;99.90;;;;;;4974516;28;98620;-72
2022/10/12 08:54:40;;;;;;;13.40;7.20;;;13.10;99.90;;;;;;4975291;28;97810;-72
2022/10/12 08:57:18;;;;;;;10.43;5.25;;;13.20;99.90;;;;;;4974649;28;99263;-72
2022/10/12 08:59:45;;;;;;;22.80;17.15;;;13.40;99.90;;;;;;4973338;28;99159;-73
2022/10/12 09:02:24;;;;;;;37.75;29.33;;;13.40;99.90;;;;;;4973919;28;99227;-73
2022/10/12 09:05:16;;;;;;;14.23;10.85;;;13.50;99.90;;;;;;4974431;28;98593;-73
2022/10/12 09:07:53;;;;;;;20.77;18.73;;;13.70;99.90;;;;;;4972347;28;99079;-72
2022/10/12 09:10:31;;;;;;;12.20;7.00;;;13.80;99.90;;;;;;4973903;28;99096;-72
2022/10/12 09:13:04;;;;;;;16.63;6.97;;;13.90;99.90;;;;;;4973547;28;99376;-73
2022/10/12 09:15:37;;;;;;;15.15;6.28;;;14.00;99.90;;;;;;4973338;28;99184;-72
2022/10/12 09:18:19;;;;;;;16.63;7.33;;;14.10;99.90;;;;;;4956704;28;102212;-72
2022/10/12 09:20:51;;;;;;;37.88;34.00;;;14.30;99.90;;;;;;4972987;28;101475;-72
2022/10/12 09:23:24;;;;;;;18.92;11.95;;;14.40;99.90;;;;;;4972522;28;99069;-73
2022/10/12 09:26:02;;;;;;;69.50;19.88;;;14.60;99.90;;;;;;4972348;28;98559;-72
2022/10/12 09:28:36;;;;;;;13.40;6.82;;;14.70;99.90;;;;;;4972980;28;100821;-73
2022/10/12 09:31:09;;;;;;;68.80;10.32;;;14.80;99.90;;;;;;4973817;28;99978;-73
2022/10/12 09:33:59;;;;;;;16.50;11.10;;;14.90;99.90;;;;;;4973802;28;99084;-72
2022/10/12 09:36:29;;;;;;;15.23;13.13;;;14.90;99.90;;;;;;4956207;28;98675;-73
2022/10/12 09:38:59;;;;;;;11.02;7.25;;;14.80;99.90;;;;;;4972214;28;99395;-73
2022/10/12 09:41:32;;;;;;;12.40;5.95;;;15.00;99.90;;;;;;4973700;28;98992;-72
2022/10/12 09:44:02;;;;;;;12.57;5.90;;;15.10;99.90;;;;;;4973256;28;99121;-73
2022/10/12 09:46:50;;;;;;;12.00;5.22;;;15.10;99.90;;;;;;4973019;28;98002;-73
2022/10/12 09:49:18;;;;;;;8.80;5.25;;;15.30;99.90;;;;;;4973948;28;99276;-72
2022/10/12 09:51:45;;;;;;;12.23;4.75;;;15.40;99.90;;;;;;4973456;28;99070;-72
2022/10/12 09:54:23;;;;;;;11.55;4.32;;;15.50;99.80;;;;;;4973214;28;99472;-73
2022/10/12 09:56:51;;;;;;;10.48;4.72;;;15.70;99.40;;;;;;4973671;28;98615;-73
2022/10/12 09:59:38;;;;;;;12.38;5.20;;;15.60;98.70;;;;;;4973583;28;99440;-72
2022/10/12 10:02:16;;;;;;;15.52;5.18;;;15.70;98.70;;;;;;4973644;28;99096;-72
2022/10/12 10:04:45;;;;;;;28.63;6.50;;;15.70;98.80;;;;;;4973862;28;98474;-73
2022/10/12 10:07:32;;;;;;;12.23;5.72;;;15.70;98.90;;;;;;4973442;28;98995;-73
2022/10/12 10:10:21;;;;;;;8.18;4.35;;;15.80;98.70;;;;;;4971994;28;102000;-73
2022/10/12 10:12:55;;;;;;;12.68;6.47;;;15.80;98.30;;;;;;4972459;28;98929;-73
2022/10/12 10:15:34;;;;;;;9.70;5.03;;;15.70;98.50;;;;;;4973484;28;98569;-72
2022/10/12 10:18:04;;;;;;;10.38;4.97;;;15.70;98.60;;;;;;4973650;28;98596;-73
2022/10/12 10:20:33;;;;;;;11.38;4.60;;;15.60;98.40;;;;;;4955393;28;102570;-73
2022/10/12 10:23:02;;;;;;;11.02;5.20;;;15.60;98.70;;;;;;4973108;28;99843;-73
2022/10/12 10:25:30;;;;;;;15.15;7.43;;;15.70;98.20;;;;;;4973510;28;98513;-73
2022/10/12 10:28:24;;;;;;;14.55;5.32;;;15.70;98.20;;;;;;4971905;28;98618;-73
2022/10/12 10:30:57;;;;;;;11.07;4.28;;;15.70;97.90;;;;;;4972401;28;99659;-73
2022/10/12 10:33:24;;;;;;;11.43;4.23;;;15.70;98.10;;;;;;4971701;28;100073;-72
2022/10/12 10:36:12;;;;;;;8.70;4.20;;;15.70;97.60;;;;;;4955839;28;98495;-73
2022/10/12 10:38:57;;;;;;;10.55;4.30;;;15.80;97.50;;;;;;4972160;28;97853;-73
2022/10/12 10:41:52;;;;;;;11.80;4.78;;;15.80;97.40;;;;;;4988068;28;101941;-73
2022/10/12 10:44:19;;;;;;;;;;;15.80;97.40;;;;;;4970328;28;101859;-72
2022/10/12 10:46:48;;;;;;;8.35;3.78;;;15.60;97.60;;;;;;4972378;28;99480;-72
2022/10/12 10:49:48;;;;;;;10.52;4.18;;;15.70;97.70;;;;;;4973401;28;98696;-72
2022/10/12 10:52:29;;;;;;;9.93;3.53;;;15.90;97.40;;;;;;4955464;28;101926;-72
2022/10/12 10:55:05;;;;;;;9.10;3.55;;;15.90;97.10;;;;;;4971663;28;99118;-72
2022/10/12 10:57:35;;;;;;;9.48;3.33;;;16.00;97.00;;;;;;4972096;28;99129;-72
2022/10/12 11:00:11;;;;;;;49.55;7.80;;;16.00;96.80;;;;;;4973405;28;98502;-73
2022/10/12 11:03:05;;;;;;;13.02;4.25;;;16.10;96.60;;;;;;4972642;28;99274;-73
2022/10/12 11:05:44;;;;;;;9.20;2.92;;;16.10;96.50;;;;;;4971819;28;98995;-72
2022/10/12 11:08:19;;;;;;;114.03;20.83;;;16.20;96.00;;;;;;4973000;28;98460;-72
2022/10/12 11:11:12;;;;;;;8.10;3.83;;;16.20;95.50;;;;;;4970800;28;99179;-72
2022/10/12 11:14:02;;;;;;;14.93;8.95;;;16.20;95.70;;;;;;4970359;28;100220;-72
2022/10/12 11:16:54;;;;;;;9.65;6.30;;;16.30;95.80;;;;;;4972606;28;99609;-73
2022/10/12 11:19:35;;;;;;;7.15;3.47;;;16.30;96.00;;;;;;4972902;28;98568;-72
2022/10/12 11:22:09;;;;;;;7.78;4.15;;;16.40;96.30;;;;;;4972802;28;98506;-72
2022/10/12 11:24:42;;;;;;;9.80;4.35;;;16.50;96.30;;;;;;4971493;28;99332;-72
2022/10/12 11:27:08;;;;;;;6.80;3.40;;;16.60;95.90;;;;;;4972263;28;98980;-73
2022/10/12 11:29:37;;;;;;;9.02;3.47;;;16.60;95.80;;;;;;4972821;28;99648;-73
2022/10/12 11:32:15;;;;;;;9.07;3.10;;;16.70;95.60;;;;;;4972584;28;97779;-73
2022/10/12 11:34:53;;;;;;;8.20;3.08;;;16.80;95.80;;;;;;4972348;28;99068;-72
2022/10/12 11:37:38;;;;;;;9.57;3.75;;;16.80;95.50;;;;;;4972386;28;98883;-72
2022/10/12 11:40:16;;;;;;;12.18;3.45;;;16.90;95.50;;;;;;4970905;28;99799;-73
2022/10/12 11:42:43;;;;;;;13.52;2.97;;;16.90;95.40;;;;;;4972612;28;98523;-73
2022/10/12 11:45:30;;;;;;;12.60;7.82;;;16.90;95.30;;;;;;4970503;28;101768;-72
2022/10/12 11:48:08;;;;;;;5.88;3.40;;;17.00;94.70;;;;;;4972267;28;99050;-73
2022/10/12 11:50:39;;;;;;;9.02;3.55;;;16.90;94.60;;;;;;4972848;28;98829;-73
2022/10/12 11:53:21;;;;;;;7.97;3.30;;;17.00;95.00;;;;;;4970891;28;98634;-73
2022/10/12 11:56:00;;;;;;;9.50;3.88;;;17.10;94.60;;;;;;4971838;28;99261;-73
2022/10/12 11:58:35;;;;;;;8.30;3.65;;;17.10;94.50;;;;;;4971048;28;101611;-73
2022/10/12 12:01:47;;;;;;;11.05;4.22;;;17.10;94.40;;;;;;4972549;28;98487;-72
2022/10/12 12:04:28;;;;;;;7.72;3.30;;;17.20;93.30;;;;;;4971039;28;98614;-72
2022/10/12 12:07:29;;;;;;;10.57;3.72;;;17.10;94.00;;;;;;4969897;28;102684;-73
2022/10/12 12:09:56;;;;;;;9.07;4.63;;;17.00;93.70;;;;;;4970624;28;99736;-73
2022/10/12 12:12:25;;;;;;;10.25;4.55;;;16.80;93.60;;;;;;4972049;28;98534;-72
2022/10/12 12:14:52;;;;;;;7.97;3.55;;;16.70;93.80;;;;;;4971919;28;98624;-72
2022/10/12 12:17:19;;;;;;;7.38;3.70;;;16.70;94.10;;;;;;4970455;28;101855;-73
2022/10/12 12:19:47;;;;;;;9.27;4.18;;;16.70;93.80;;;;;;4970295;28;102831;-73
2022/10/12 12:22:14;;;;;;;9.07;4.30;;;16.80;94.10;;;;;;4987353;28;98587;-73
2022/10/12 12:25:07;;;;;;;12.73;3.72;;;16.90;94.30;;;;;;4972257;28;97886;-72
2022/10/12 12:27:45;;;;;;;10.60;4.07;;;17.00;94.20;;;;;;4990125;28;101945;-73
2022/10/12 12:30:18;;;;;;;8.05;4.35;;;17.00;94.40;;;;;;4974896;28;99125;-73
2022/10/12 12:32:51;;;;;;;7.47;4.27;;;16.90;93.90;;;;;;4974992;28;99457;-73
2022/10/12 12:35:33;;;;;;;14.50;4.30;;;16.90;94.30;;;;;;4957564;28;98672;-73
2022/10/12 12:38:12;;;;;;;7.20;3.78;;;17.00;94.10;;;;;;4974717;28;99344;-72
2022/10/12 12:40:40;;;;;;;7.47;3.47;;;17.10;94.20;;;;;;4974936;28;99038;-73
2022/10/12 12:43:29;;;;;;;9.13;3.97;;;17.20;93.80;;;;;;4973426;28;98523;-72
2022/10/12 12:46:05;;;;;;;14.30;3.85;;;17.30;93.80;;;;;;4975245;28;98435;-73
2022/10/12 12:48:40;;;;;;;11.93;3.53;;;17.30;94.10;;;;;;4973625;28;100154;-72
2022/10/12 12:51:22;;;;;;;8.98;4.38;;;17.40;93.60;;;;;;4974964;28;99208;-73
2022/10/12 12:53:51;;;;;;;10.05;4.28;;;17.40;93.50;;;;;;4975194;28;98535;-72
2022/10/12 12:56:27;;;;;;;12.25;6.47;;;17.50;93.60;;;;;;4974629;28;99223;-73
2022/10/12 12:59:01;;;;;;;8.05;3.95;;;17.50;93.40;;;;;;4972677;28;102535;-73
2022/10/12 13:01:50;;;;;;;12.52;4.75;;;17.40;93.30;;;;;;4973042;28;102445;-73
2022/10/12 13:04:38;;;;;;;7.68;3.60;;;17.40;93.50;;;;;;4974898;28;98584;-73
2022/10/12 13:07:41;;;;;;;7.00;2.97;;;17.40;93.60;;;;;;4973128;28;98682;-73
2022/10/12 13:10:27;;;;;;;6.72;3.20;;;17.60;93.20;;;;;;4974145;28;99374;-73